createdAt,value
2019-01-16T00:00:55.236Z,23.93
2019-01-16T00:03:52.115Z,30.03
2019-01-16T00:06:46.101Z,22.83
2019-01-16T00:09:37.115Z,27.60
2019-01-16T00:12:31.235Z,19.20
2019-01-16T00:15:22.227Z,26.40
2019-01-16T00:18:08.613Z,20.50
2019-01-16T00:20:56.528Z,24.43
2019-01-16T00:23:43.097Z,22.80
2019-01-16T00:26:35.638Z,18.03
2019-01-16T00:29:29.651Z,18.93
2019-01-16T00:32:10.788Z,20.13
2019-01-16T00:34:49.366Z,16.70
2019-01-16T00:37:36.160Z,18.27
2019-01-16T00:40:19.987Z,17.80
2019-01-16T00:43:26.091Z,17.43
2019-01-16T00:46:16.753Z,25.13
2019-01-16T00:49:13.884Z,21.47
2019-01-16T00:52:00.447Z,19.63
2019-01-16T00:54:55.251Z,18.77
2019-01-16T00:58:01.180Z,21.17
2019-01-16T01:00:39.067Z,20.67
2019-01-16T01:03:25.140Z,20.33
2019-01-16T01:06:01.494Z,18.73
2019-01-16T01:08:55.762Z,21.47
2019-01-16T01:11:53.638Z,22.67
2019-01-16T01:14:31.642Z,17.23
2019-01-16T01:17:22.417Z,25.07
2019-01-16T01:20:09.791Z,14.60
2019-01-16T01:22:45.528Z,18.67
2019-01-16T01:25:29.539Z,18.77
2019-01-16T01:28:16.183Z,19.93
2019-01-16T01:31:02.784Z,20.23
2019-01-16T01:34:01.528Z,21.63
2019-01-16T01:36:44.635Z,16.53
2019-01-16T01:39:35.579Z,22.83
2019-01-16T01:42:27.578Z,17.67
2019-01-16T01:45:15.833Z,22.13
2019-01-16T01:48:01.509Z,19.77
2019-01-16T01:50:58.288Z,19.60
2019-01-16T01:53:52.256Z,19.20
2019-01-16T01:56:38.829Z,21.73
2019-01-16T01:59:35.579Z,22.70
2019-01-16T02:02:11.220Z,20.33
2019-01-16T02:04:51.974Z,23.33
2019-01-16T02:07:39.923Z,24.20
2019-01-16T02:10:18.616Z,29.43
2019-01-16T02:13:09.458Z,24.37
2019-01-16T02:16:00.071Z,28.37
2019-01-16T02:18:50.790Z,18.73
2019-01-16T02:21:36.986Z,25.40
2019-01-16T02:24:29.063Z,22.53
2019-01-16T02:27:29.141Z,25.43
2019-01-16T02:30:09.674Z,24.70
2019-01-16T02:33:03.743Z,25.13
2019-01-16T02:35:49.743Z,26.77
2019-01-16T02:38:32.113Z,22.77
2019-01-16T02:41:19.277Z,25.93
2019-01-16T02:44:13.369Z,24.03
2019-01-16T02:46:56.380Z,22.60
2019-01-16T02:49:42.684Z,24.27
2019-01-16T02:52:23.659Z,25.57
2019-01-16T02:55:10.220Z,23.33
2019-01-16T02:58:02.118Z,23.10
2019-01-16T03:00:41.672Z,26.13
2019-01-16T03:03:28.302Z,23.97
2019-01-16T03:06:14.438Z,23.60
2019-01-16T03:08:52.558Z,24.50
2019-01-16T03:11:30.091Z,25.30
2019-01-16T03:14:30.122Z,23.83
2019-01-16T03:17:18.066Z,23.73
2019-01-16T03:20:20.966Z,25.80
2019-01-16T03:23:07.003Z,21.77
2019-01-16T03:25:44.278Z,25.40
2019-01-16T03:28:21.224Z,26.90
2019-01-16T03:31:09.204Z,24.30
2019-01-16T03:34:14.986Z,23.43
2019-01-16T03:37:04.778Z,22.80
2019-01-16T03:39:49.056Z,23.10
2019-01-16T03:42:36.986Z,20.93
2019-01-16T03:45:32.390Z,22.80
2019-01-16T03:48:14.102Z,22.80
2019-01-16T03:51:11.194Z,23.70
2019-01-16T03:53:50.008Z,20.40
2019-01-16T03:56:31.620Z,17.60
2019-01-16T03:59:28.336Z,23.07
2019-01-16T04:02:25.146Z,20.20
2019-01-16T04:05:11.795Z,21.73
2019-01-16T04:07:58.346Z,18.80
2019-01-16T04:10:46.239Z,20.63
2019-01-16T04:13:32.091Z,24.43
2019-01-16T04:16:20.003Z,19.63
2019-01-16T04:19:06.278Z,25.47
2019-01-16T04:22:06.207Z,21.50
2019-01-16T04:24:51.710Z,23.57
2019-01-16T04:27:38.338Z,20.17
2019-01-16T04:30:32.572Z,22.20
2019-01-16T04:33:23.528Z,18.53
2019-01-16T04:36:09.878Z,22.17
2019-01-16T04:39:03.603Z,23.57
2019-01-16T04:41:38.995Z,19.93
2019-01-16T04:44:25.304Z,23.37
2019-01-16T04:47:11.854Z,20.53
2019-01-16T04:49:58.627Z,21.67
2019-01-16T04:52:43.010Z,22.53
2019-01-16T04:55:29.623Z,26.10
2019-01-16T04:58:10.841Z,21.80
2019-01-16T05:01:01.528Z,23.73
2019-01-16T05:04:07.292Z,25.47
2019-01-16T05:06:56.778Z,22.90
2019-01-16T05:09:39.449Z,26.07
2019-01-16T05:12:34.924Z,22.60
2019-01-16T05:15:13.724Z,26.20
2019-01-16T05:18:07.033Z,21.47
2019-01-16T05:20:53.557Z,23.83
2019-01-16T05:23:37.300Z,25.87
2019-01-16T05:26:14.095Z,23.63
2019-01-16T05:29:11.499Z,24.40
2019-01-16T05:31:57.840Z,24.30
2019-01-16T05:34:52.682Z,23.63
2019-01-16T05:37:55.761Z,24.67
2019-01-16T05:40:48.791Z,24.87
2019-01-16T05:43:36.759Z,25.73
2019-01-16T05:46:36.626Z,24.83
2019-01-16T05:49:18.012Z,30.27
2019-01-16T05:52:08.809Z,23.13
2019-01-16T05:54:56.947Z,27.23
2019-01-16T05:57:44.860Z,28.10
2019-01-16T06:00:33.497Z,25.57
2019-01-16T06:03:33.406Z,26.47
2019-01-16T06:06:33.407Z,25.43
2019-01-16T06:09:20.007Z,23.73
2019-01-16T06:12:17.056Z,26.13
2019-01-16T06:15:03.896Z,27.50
2019-01-16T06:18:01.837Z,34.20
2019-01-16T06:21:07.705Z,31.50
2019-01-16T06:23:54.087Z,27.40
2019-01-16T06:26:40.630Z,27.40
2019-01-16T06:29:34.532Z,29.37
2019-01-16T06:32:22.588Z,28.93
2019-01-16T06:35:10.460Z,27.20
2019-01-16T06:38:08.012Z,30.77
2019-01-16T06:41:03.822Z,30.93
2019-01-16T06:43:49.566Z,31.17
2019-01-16T06:46:55.819Z,29.60
2019-01-16T06:49:30.503Z,32.70
2019-01-16T06:52:05.682Z,32.87
2019-01-16T06:54:49.474Z,30.83
2019-01-16T06:57:49.493Z,31.27
2019-01-16T07:00:36.120Z,32.70
2019-01-16T07:03:29.007Z,32.53
2019-01-16T07:06:22.705Z,31.80
2019-01-16T07:09:13.610Z,32.80
2019-01-16T07:12:04.551Z,32.37
2019-01-16T07:14:44.247Z,35.37
2019-01-16T07:17:24.661Z,31.23
2019-01-16T07:20:11.053Z,33.30
2019-01-16T07:23:05.027Z,31.83
2019-01-16T07:25:54.090Z,30.67
2019-01-16T07:28:42.060Z,33.07
2019-01-16T07:31:32.770Z,31.90
2019-01-16T07:34:09.745Z,32.03
2019-01-16T07:36:49.701Z,30.33
2019-01-16T07:39:35.794Z,32.07
2019-01-16T07:42:19.718Z,31.43
2019-01-16T07:45:10.449Z,29.27
2019-01-16T07:47:48.707Z,30.63
2019-01-16T07:50:39.431Z,29.63
2019-01-16T07:53:17.056Z,30.63
2019-01-16T07:55:57.117Z,28.87
2019-01-16T07:58:43.483Z,26.93
2019-01-16T08:01:29.819Z,26.37
2019-01-16T08:04:29.306Z,25.57
2019-01-16T08:07:17.262Z,24.63
2019-01-16T08:10:07.970Z,25.87
2019-01-16T08:12:56.343Z,23.43
2019-01-16T08:15:44.232Z,26.10
2019-01-16T08:18:28.186Z,22.83
2019-01-16T08:21:21.902Z,22.73
2019-01-16T08:23:58.532Z,24.40
2019-01-16T08:26:49.540Z,28.67
2019-01-16T08:29:35.892Z,22.77
2019-01-16T08:32:19.374Z,27.57
2019-01-16T08:35:10.342Z,30.60
2019-01-16T08:37:56.738Z,23.40
2019-01-16T08:40:50.783Z,24.90
2019-01-16T08:43:24.905Z,21.57
2019-01-16T08:46:11.236Z,20.40
2019-01-16T08:49:05.005Z,20.43
2019-01-16T08:51:51.528Z,20.33
2019-01-16T08:54:42.422Z,17.67
2019-01-16T08:57:36.159Z,20.63
2019-01-16T09:00:25.506Z,19.00
2019-01-16T09:03:03.997Z,23.00
2019-01-16T09:06:01.448Z,20.53
2019-01-16T09:08:49.445Z,20.40
2019-01-16T09:11:32.038Z,18.10
2019-01-16T09:14:24.707Z,20.20
2019-01-16T09:17:11.073Z,16.50
2019-01-16T09:20:05.853Z,24.07
2019-01-16T09:22:53.828Z,17.50
2019-01-16T09:25:40.496Z,17.23
2019-01-16T09:28:20.135Z,16.27
2019-01-16T09:31:02.653Z,16.13
2019-01-16T09:33:50.625Z,16.13
2019-01-16T09:36:37.487Z,17.57
2019-01-16T09:39:35.019Z,15.17
2019-01-16T09:42:21.940Z,17.97
2019-01-16T09:45:09.941Z,16.03
2019-01-16T09:47:57.366Z,17.97
2019-01-16T09:50:48.228Z,15.07
2019-01-16T09:53:34.623Z,17.90
2019-01-16T09:56:31.865Z,17.50
2019-01-16T09:59:59.944Z,16.73
2019-01-16T10:05:41.592Z,19.80
2019-01-16T10:09:01.961Z,16.07
2019-01-16T10:11:50.458Z,15.73
2019-01-16T10:14:32.958Z,16.43
2019-01-16T10:17:20.869Z,15.03
2019-01-16T10:20:07.579Z,15.50
2019-01-16T10:23:08.742Z,16.43
2019-01-16T10:25:51.878Z,15.20
2019-01-16T10:28:44.621Z,15.47
2019-01-16T10:31:36.324Z,16.90
2019-01-16T10:38:03.022Z,16.93
2019-01-16T10:40:53.899Z,20.97
2019-01-16T10:43:50.636Z,19.43
2019-01-16T10:46:35.193Z,18.20
2019-01-16T10:49:25.843Z,18.57
2019-01-16T10:52:04.693Z,20.50
2019-01-16T10:54:55.768Z,19.77
2019-01-16T10:57:52.514Z,20.43
2019-01-16T11:00:44.999Z,20.20
2019-01-16T11:03:34.055Z,20.67
2019-01-16T11:06:22.060Z,21.17
2019-01-16T11:08:59.380Z,21.10
2019-01-16T11:11:43.291Z,22.10
2019-01-16T11:14:40.362Z,20.70
2019-01-16T11:17:31.314Z,19.83
2019-01-16T11:20:37.187Z,21.13
2019-01-16T11:23:33.068Z,22.47
2019-01-16T11:26:12.318Z,24.73
2019-01-16T11:29:06.272Z,21.50
2019-01-16T11:31:52.551Z,22.77
2019-01-16T11:34:38.948Z,23.73
2019-01-16T11:37:20.849Z,25.50
2019-01-16T11:40:07.415Z,25.13
2019-01-16T11:42:48.195Z,23.60
2019-01-16T11:45:23.904Z,24.83
2019-01-16T11:48:21.588Z,23.30
2019-01-16T11:51:07.164Z,21.50
2019-01-16T11:53:53.848Z,23.30
2019-01-16T11:56:36.796Z,22.80
2019-01-16T11:59:17.975Z,21.93
2019-01-16T12:02:08.910Z,22.00
2019-01-16T12:04:59.560Z,21.67
2019-01-16T12:07:50.235Z,22.57
2019-01-16T12:10:32.413Z,20.73
2019-01-16T12:13:23.121Z,25.43
2019-01-16T12:16:22.979Z,20.63
2019-01-16T12:19:25.777Z,21.17
2019-01-16T12:22:25.604Z,23.57
2019-01-16T12:25:20.212Z,21.80
2019-01-16T12:28:26.022Z,22.77
2019-01-16T12:31:03.315Z,21.07
2019-01-16T12:33:49.683Z,21.13
2019-01-16T12:36:31.434Z,21.50
2019-01-16T12:39:19.510Z,19.80
2019-01-16T12:42:06.225Z,20.47
2019-01-16T12:48:15.685Z,22.00
2019-01-16T12:51:03.642Z,20.27
2019-01-16T12:53:55.760Z,19.10
2019-01-16T12:56:55.545Z,22.27
2019-01-16T12:59:38.587Z,18.13
2019-01-16T13:02:35.340Z,18.40
2019-01-16T13:05:26.331Z,18.77
2019-01-16T13:08:22.759Z,18.27
2019-01-16T13:11:13.251Z,17.57
2019-01-16T13:14:00.716Z,18.43
2019-01-16T13:16:55.215Z,17.07
2019-01-16T13:19:34.138Z,16.30
2019-01-16T13:22:38.709Z,17.07
2019-01-16T13:25:26.664Z,15.23
2019-01-16T13:28:12.982Z,15.40
2019-01-16T13:30:57.872Z,14.60
2019-01-16T13:33:47.221Z,14.50
2019-01-16T13:36:26.326Z,14.93
2019-01-16T13:39:17.284Z,20.83
2019-01-16T13:42:02.147Z,14.03
2019-01-16T13:44:55.973Z,13.70
2019-01-16T13:47:46.763Z,13.27
2019-01-16T13:50:43.602Z,13.40
2019-01-16T13:53:43.373Z,15.70
2019-01-16T13:59:42.487Z,9.33
2019-01-16T14:02:28.726Z,11.43
2019-01-16T14:05:19.493Z,10.63
2019-01-16T14:08:05.855Z,10.90
2019-01-16T14:10:49.511Z,10.00
2019-01-16T14:13:43.523Z,10.60
2019-01-16T14:16:29.954Z,10.47
2019-01-16T14:19:16.522Z,12.07
2019-01-16T14:22:03.196Z,12.47
2019-01-16T14:24:53.598Z,10.87
2019-01-16T14:27:44.223Z,11.10
2019-01-16T14:30:33.550Z,10.97
2019-01-16T14:33:21.424Z,9.33
2019-01-16T14:36:12.194Z,8.73
2019-01-16T14:42:39.785Z,10.80
2019-01-16T14:45:45.583Z,8.43
2019-01-16T14:48:39.309Z,11.37
2019-01-16T14:51:28.254Z,10.77
2019-01-16T14:54:28.198Z,9.40
2019-01-16T14:57:28.096Z,11.67
2019-01-16T15:00:22.063Z,11.37
2019-01-16T15:03:18.834Z,9.70
2019-01-16T15:06:12.553Z,9.47
2019-01-16T15:09:02.025Z,8.77
2019-01-16T15:11:46.058Z,9.40
2019-01-16T15:14:27.212Z,8.93
2019-01-16T15:17:13.936Z,11.60
2019-01-16T15:20:00.239Z,10.97
2019-01-16T15:22:44.106Z,8.13
2019-01-16T15:25:27.285Z,10.67
2019-01-16T15:28:04.459Z,9.30
2019-01-16T15:30:53.111Z,8.03
2019-01-16T15:33:33.579Z,10.10
2019-01-16T15:36:31.414Z,8.97
2019-01-16T15:39:08.712Z,9.13
2019-01-16T15:42:20.302Z,10.10
2019-01-16T15:45:20.176Z,8.43
2019-01-16T15:48:26.287Z,8.07
2019-01-16T15:51:25.819Z,12.17
2019-01-16T15:54:16.814Z,10.87
2019-01-16T15:57:08.475Z,13.13
2019-01-16T15:59:56.976Z,10.80
2019-01-16T16:05:36.938Z,9.13
2019-01-16T16:08:25.450Z,8.90
2019-01-16T16:11:04.369Z,10.40
2019-01-16T16:14:00.996Z,12.03
2019-01-16T16:16:43.742Z,16.03
2019-01-16T16:19:43.925Z,11.30
2019-01-16T16:22:30.711Z,13.10
2019-01-16T16:25:16.625Z,13.53
2019-01-16T16:28:03.341Z,14.93
2019-01-16T16:30:40.229Z,13.30
2019-01-16T16:33:27.057Z,14.77
2019-01-16T16:36:13.648Z,13.90
2019-01-16T16:39:00.018Z,15.97
2019-01-16T16:41:48.017Z,15.17
2019-01-16T16:44:35.927Z,16.47
2019-01-16T16:47:27.903Z,17.17
2019-01-16T16:50:09.789Z,17.10
2019-01-16T16:52:57.715Z,19.00
2019-01-16T16:55:44.074Z,18.93
2019-01-16T16:58:35.131Z,20.73
2019-01-16T17:01:21.871Z,19.97
2019-01-16T17:07:37.309Z,22.53
2019-01-16T17:10:32.456Z,24.60
2019-01-16T17:13:22.961Z,22.07
2019-01-16T17:16:10.841Z,21.67
2019-01-16T17:18:59.146Z,22.80
2019-01-16T17:21:45.444Z,23.13
2019-01-16T17:28:10.733Z,23.80
2019-01-16T17:31:00.164Z,28.03
2019-01-16T17:33:46.796Z,24.07
2019-01-16T17:36:33.499Z,22.13
2019-01-16T17:39:13.706Z,21.20
2019-01-16T17:42:10.638Z,20.67
2019-01-16T17:45:04.616Z,20.17
2019-01-16T17:47:48.062Z,20.73
2019-01-16T17:50:29.909Z,20.13
2019-01-16T17:53:17.844Z,19.47
2019-01-16T17:56:08.323Z,19.90
2019-01-16T17:58:54.823Z,19.07
2019-01-16T18:01:41.352Z,19.00
2019-01-16T18:04:27.778Z,19.10
2019-01-16T18:07:30.912Z,18.90
2019-01-16T18:10:17.607Z,18.87
2019-01-16T18:13:00.575Z,18.33
2019-01-16T18:15:54.572Z,20.17
2019-01-16T18:19:01.287Z,22.43
2019-01-16T18:21:49.386Z,18.57
2019-01-16T18:24:49.251Z,16.97
2019-01-16T18:27:40.213Z,18.60
2019-01-16T18:30:30.080Z,18.83
2019-01-16T18:33:38.700Z,20.73
2019-01-16T18:36:26.666Z,17.30
2019-01-16T18:39:12.901Z,19.00
2019-01-16T18:42:03.847Z,17.43
2019-01-16T18:44:57.794Z,20.90
2019-01-16T18:47:44.310Z,16.00
2019-01-16T18:50:30.268Z,14.70
2019-01-16T18:53:36.146Z,13.60
2019-01-16T18:56:17.889Z,15.80
2019-01-16T18:59:08.477Z,15.90
2019-01-16T19:01:59.260Z,16.97
2019-01-16T19:04:45.856Z,15.43
2019-01-16T19:07:32.491Z,14.57
2019-01-16T19:10:08.643Z,16.97
2019-01-16T19:12:55.506Z,14.33
2019-01-16T19:15:38.941Z,16.47
2019-01-16T19:18:22.354Z,18.27
2019-01-16T19:21:13.906Z,14.67
2019-01-16T19:24:14.041Z,14.33
2019-01-16T19:27:00.647Z,14.83
2019-01-16T19:29:56.865Z,17.37
2019-01-16T19:32:56.960Z,17.23
2019-01-16T19:35:34.962Z,16.60
2019-01-16T19:38:23.168Z,16.10
2019-01-16T19:41:09.647Z,16.60
2019-01-16T19:43:56.215Z,16.17
2019-01-16T19:46:42.376Z,19.93
2019-01-16T19:49:33.431Z,20.80
2019-01-16T19:52:21.579Z,23.80
2019-01-16T19:55:09.818Z,23.63
2019-01-16T19:57:49.542Z,18.00
2019-01-16T20:00:52.987Z,20.17
2019-01-16T20:03:53.163Z,20.40
2019-01-16T20:10:24.076Z,23.63
2019-01-16T20:13:15.153Z,19.90
2019-01-16T20:15:55.020Z,23.47
2019-01-16T20:18:36.590Z,20.83
2019-01-16T20:21:24.751Z,21.30
2019-01-16T20:24:13.381Z,18.27
2019-01-16T20:27:00.126Z,21.10
2019-01-16T20:29:57.307Z,21.13
2019-01-16T20:32:51.450Z,20.20
2019-01-16T20:35:31.963Z,20.53
2019-01-16T20:38:26.244Z,21.77
2019-01-16T20:41:22.695Z,20.40
2019-01-16T20:44:02.194Z,23.00
2019-01-16T20:46:45.232Z,19.70
2019-01-16T20:49:25.740Z,22.93
2019-01-16T20:52:31.691Z,20.63
2019-01-16T20:55:19.834Z,20.23
2019-01-16T20:58:14.196Z,22.07
2019-01-16T21:00:58.817Z,21.07
2019-01-16T21:03:45.435Z,20.10
2019-01-16T21:07:17.224Z,23.13
2019-01-16T21:10:03.962Z,19.73
2019-01-16T21:12:50.743Z,22.50
2019-01-16T21:15:38.813Z,20.77
2019-01-16T21:18:35.848Z,23.73
2019-01-16T21:21:22.735Z,24.47
2019-01-16T21:24:09.587Z,22.00
2019-01-16T21:27:00.366Z,23.10
2019-01-16T21:29:46.951Z,22.03
2019-01-16T21:32:43.790Z,25.70
2019-01-16T21:35:36.396Z,18.60
2019-01-16T21:38:22.782Z,20.90
2019-01-16T21:41:09.241Z,17.23
2019-01-16T21:44:06.167Z,19.90
2019-01-16T21:46:54.273Z,20.70
2019-01-16T21:49:37.902Z,22.60
2019-01-16T21:52:38.074Z,18.43
2019-01-16T21:55:29.268Z,21.03
2019-01-16T21:58:23.224Z,25.30
2019-01-16T22:01:10.002Z,21.17
2019-01-16T22:04:01.060Z,25.90
2019-01-16T22:06:46.330Z,19.97
2019-01-16T22:10:01.457Z,17.13
2019-01-16T22:12:55.547Z,25.37
2019-01-16T22:15:42.091Z,22.83
2019-01-16T22:18:45.271Z,22.53
2019-01-16T22:21:36.028Z,20.70
2019-01-16T22:27:27.151Z,19.03
2019-01-16T22:30:07.208Z,21.27
2019-01-16T22:36:31.582Z,18.83
2019-01-16T22:39:18.285Z,21.67
2019-01-16T22:42:04.939Z,21.30
2019-01-16T22:44:46.962Z,22.17
2019-01-16T22:47:34.888Z,24.43
2019-01-16T22:50:19.927Z,19.73
2019-01-16T22:53:15.334Z,22.47
2019-01-16T22:56:01.648Z,19.80
2019-01-16T22:58:49.595Z,22.13
2019-01-16T23:01:23.450Z,21.23
2019-01-16T23:04:10.148Z,23.57
2019-01-16T23:07:05.291Z,22.20
2019-01-16T23:10:02.148Z,21.23
2019-01-16T23:12:55.934Z,26.50
2019-01-16T23:15:41.915Z,24.30
2019-01-16T23:18:47.674Z,24.23
2019-01-16T23:21:33.892Z,22.53
2019-01-16T23:24:30.672Z,22.27
2019-01-16T23:27:30.521Z,23.90
2019-01-16T23:30:08.152Z,27.50
2019-01-16T23:32:45.025Z,22.87
2019-01-16T23:35:31.654Z,26.23
2019-01-16T23:38:16.558Z,26.73
2019-01-16T23:41:02.965Z,23.23
2019-01-16T23:43:56.836Z,23.07
2019-01-16T23:46:42.340Z,20.20
2019-01-16T23:49:36.168Z,25.80
2019-01-16T23:52:11.367Z,22.97
2019-01-16T23:54:59.356Z,19.60
2019-01-16T23:57:42.338Z,20.50
